Time;durP1;ratioP1;P1;durP2;ratioP2;P2;SDS_P1;SDS_P2;PMS_P1;PMS_P2;Temp;Humidity;BMP_temperature;BMP_pressure;BME280_temperature;BME280_humidity;BME280_pressure;Samples;Min_cycle;Max_cycle;Signal;HPM_P1;HPM_P2
2021/03/11 00:00:16;;;;;;;17.83;12.23;;;6.70;90.10;;;;;;2073938;28;20025;-80
2021/03/11 00:01:17;;;;;;;18.77;12.10;;;6.70;90.10;;;;;;2072692;28;20046;-81
2021/03/11 00:02:18;;;;;;;19.73;12.77;;;6.70;90.00;;;;;;2072756;28;20081;-81
2021/03/11 00:03:21;;;;;;;20.27;13.00;;;6.70;90.00;;;;;;2073107;28;20092;-81
2021/03/11 00:04:21;;;;;;;20.92;13.18;;;6.70;90.00;;;;;;2067140;28;20066;-81
2021/03/11 00:05:22;;;;;;;21.17;13.20;;;6.80;90.00;;;;;;2068900;28;20026;-81
2021/03/11 00:06:23;;;;;;;20.42;13.15;;;6.80;90.00;;;;;;2062889;28;20026;-81
2021/03/11 00:07:23;;;;;;;19.23;12.68;;;6.80;90.30;;;;;;2057041;28;20538;-81
2021/03/11 00:08:24;;;;;;;19.33;12.20;;;6.80;90.00;;;;;;2070317;28;20052;-81
2021/03/11 00:09:25;;;;;;;20.23;12.30;;;6.80;90.00;;;;;;2080135;28;20060;-80
2021/03/11 00:10:25;;;;;;;17.77;11.68;;;6.80;90.00;;;;;;2073914;28;20084;-81
2021/03/11 00:11:26;;;;;;;19.80;13.32;;;6.80;89.90;;;;;;2076248;28;20030;-80
2021/03/11 00:12:26;;;;;;;19.00;12.77;;;6.80;90.00;;;;;;2074380;28;20030;-81
2021/03/11 00:13:27;;;;;;;19.40;12.80;;;6.80;90.00;;;;;;2074370;28;20501;-81
2021/03/11 00:14:28;;;;;;;20.02;12.80;;;6.80;90.20;;;;;;2074143;28;20096;-80
2021/03/11 00:15:29;;;;;;;18.67;11.85;;;6.80;89.90;;;;;;2075282;28;20041;-81
2021/03/11 00:16:30;;;;;;;17.50;12.48;;;6.80;89.70;;;;;;2073402;28;20041;-81
2021/03/11 00:17:31;;;;;;;18.42;12.50;;;6.80;89.80;;;;;;2068118;28;20036;-81
2021/03/11 00:18:31;;;;;;;17.70;12.18;;;6.80;89.70;;;;;;2076104;28;20033;-81
2021/03/11 00:19:33;;;;;;;18.17;11.52;;;6.80;89.60;;;;;;2081099;28;20021;-81
2021/03/11 00:20:34;;;;;;;17.63;11.60;;;6.80;89.60;;;;;;2074101;28;20034;-81
2021/03/11 00:21:35;;;;;;;17.23;11.70;;;6.90;89.60;;;;;;2076852;28;20029;-81
2021/03/11 00:22:36;;;;;;;18.77;11.52;;;6.90;89.60;;;;;;2058643;28;20543;-81
2021/03/11 00:23:36;;;;;;;18.35;11.35;;;6.80;89.60;;;;;;2059074;28;20027;-80
2021/03/11 00:24:37;;;;;;;19.98;11.50;;;6.90;89.60;;;;;;2064341;28;20107;-81
2021/03/11 00:25:38;;;;;;;16.63;11.13;;;6.90;89.60;;;;;;2057238;28;20153;-81
2021/03/11 00:26:38;;;;;;;19.60;11.95;;;6.80;89.50;;;;;;2057022;28;20027;-81
2021/03/11 00:27:40;;;;;;;17.63;11.65;;;6.90;89.60;;;;;;2063764;28;20026;-81
2021/03/11 00:28:40;;;;;;;19.98;12.13;;;6.90;89.60;;;;;;2080050;28;20068;-81
2021/03/11 00:29:41;;;;;;;18.85;12.25;;;6.90;90.00;;;;;;2081343;28;20026;-81
2021/03/11 00:30:41;;;;;;;20.17;12.90;;;6.90;89.60;;;;;;2070907;28;20030;-81
2021/03/11 00:31:42;;;;;;;18.75;11.90;;;6.90;89.60;;;;;;2064598;28;20554;-81
2021/03/11 00:32:43;;;;;;;21.38;13.48;;;6.90;89.60;;;;;;2064240;28;20069;-81
2021/03/11 00:33:44;;;;;;;20.38;12.93;;;6.90;89.60;;;;;;2080882;28;20050;-81
2021/03/11 00:34:44;;;;;;;19.23;12.57;;;6.90;89.60;;;;;;2072930;28;20026;-81
2021/03/11 00:35:45;;;;;;;22.05;13.35;;;6.90;89.60;;;;;;2063293;28;20629;-80
2021/03/11 00:36:46;;;;;;;18.52;11.90;;;6.90;89.50;;;;;;2072609;28;20038;-81
2021/03/11 00:37:48;;;;;;;19.23;12.18;;;6.90;90.00;;;;;;2081306;28;20022;-81
2021/03/11 00:38:48;;;;;;;19.27;12.48;;;6.90;89.50;;;;;;2081590;28;20124;-81
2021/03/11 00:39:49;;;;;;;18.60;12.18;;;6.90;90.00;;;;;;2073172;28;20026;-81
2021/03/11 00:40:49;;;;;;;17.08;12.07;;;6.90;89.50;;;;;;2071819;28;20424;-81
2021/03/11 00:41:50;;;;;;;18.98;12.00;;;6.90;89.50;;;;;;2074085;28;20033;-81
2021/03/11 00:42:51;;;;;;;18.60;12.10;;;6.90;89.60;;;;;;2067765;28;20039;-81
2021/03/11 00:43:52;;;;;;;19.05;12.32;;;6.90;89.50;;;;;;2074333;28;20022;-81
2021/03/11 00:44:52;;;;;;;17.65;11.40;;;6.90;89.60;;;;;;2075283;28;20117;-81
2021/03/11 00:45:53;;;;;;;18.33;11.88;;;6.90;89.50;;;;;;2078356;28;20486;-81
2021/03/11 00:46:54;;;;;;;17.65;11.40;;;6.90;89.50;;;;;;2075505;28;20065;-81
2021/03/11 00:47:54;;;;;;;20.40;12.45;;;6.90;89.40;;;;;;2073697;28;20029;-80
2021/03/11 00:48:55;;;;;;;19.27;11.55;;;6.90;89.40;;;;;;2064362;28;20041;-81
2021/03/11 00:49:55;;;;;;;19.17;12.25;;;6.90;89.40;;;;;;2064595;28;20455;-80
2021/03/11 00:50:56;;;;;;;19.00;12.38;;;7.00;89.50;;;;;;2064168;28;20522;-81
2021/03/11 00:51:57;;;;;;;22.00;12.27;;;7.00;89.40;;;;;;2072507;28;20085;-80
2021/03/11 00:52:58;;;;;;;17.70;11.38;;;6.90;89.40;;;;;;2082197;28;20391;-81
2021/03/11 00:53:58;;;;;;;19.50;11.68;;;7.00;89.40;;;;;;2089850;28;20033;-81
2021/03/11 00:54:59;;;;;;;17.63;10.75;;;7.00;89.40;;;;;;2073898;28;20528;-81
2021/03/11 00:56:00;;;;;;;16.70;10.82;;;7.00;89.30;;;;;;2064339;28;20480;-81
2021/03/11 00:57:00;;;;;;;17.65;10.93;;;7.00;89.30;;;;;;2064261;28;20030;-80
2021/03/11 00:58:01;;;;;;;16.63;10.50;;;7.00;89.30;;;;;;2064061;28;20030;-81
2021/03/11 00:59:02;;;;;;;18.08;12.02;;;7.00;89.30;;;;;;2079169;28;20033;-80
2021/03/11 01:00:07;;;;;;;17.50;11.27;;;7.00;89.30;;;;;;2072474;28;20022;-81
2021/03/11 01:01:08;;;;;;;19.60;11.60;;;7.00;89.30;;;;;;2064852;28;20125;-81
2021/03/11 01:02:09;;;;;;;17.90;11.10;;;7.00;89.30;;;;;;2072451;28;20392;-80
2021/03/11 01:03:09;;;;;;;17.98;11.52;;;7.00;89.20;;;;;;2064367;28;20022;-81
2021/03/11 01:04:11;;;;;;;18.25;11.73;;;7.00;89.20;;;;;;2064013;28;20076;-81
2021/03/11 01:05:15;;;;;;;18.15;11.48;;;7.00;89.20;;;;;;2056290;28;20078;-81
2021/03/11 01:06:16;;;;;;;18.67;10.80;;;7.00;89.20;;;;;;2056876;28;20058;-81
2021/03/11 01:07:17;;;;;;;17.88;11.00;;;7.10;89.20;;;;;;2062963;28;20382;-81
2021/03/11 01:08:18;;;;;;;17.17;11.00;;;7.10;89.20;;;;;;2072661;28;20096;-81
2021/03/11 01:09:19;;;;;;;15.55;10.73;;;7.10;89.20;;;;;;2072822;28;20116;-81
2021/03/11 01:10:19;;;;;;;17.30;10.60;;;7.10;89.20;;;;;;2065361;28;20524;-81
2021/03/11 01:11:20;;;;;;;15.98;10.52;;;7.10;89.10;;;;;;2072687;28;20567;-81
2021/03/11 01:12:21;;;;;;;17.02;10.45;;;7.10;89.10;;;;;;2064282;28;20031;-81
2021/03/11 01:13:22;;;;;;;16.35;10.73;;;7.10;89.10;;;;;;2056613;28;20034;-81
2021/03/11 01:14:22;;;;;;;15.45;10.25;;;7.10;89.10;;;;;;2072887;28;20508;-81
2021/03/11 01:15:26;;;;;;;17.55;11.30;;;7.10;89.20;;;;;;2075393;28;20056;-80
2021/03/11 01:16:27;;;;;;;17.48;11.50;;;7.10;89.10;;;;;;2071952;28;20025;-81
2021/03/11 01:17:27;;;;;;;18.80;11.70;;;7.20;89.20;;;;;;2072666;28;20024;-81
2021/03/11 01:18:28;;;;;;;17.13;11.10;;;7.10;89.10;;;;;;2072548;28;20497;-80
2021/03/11 01:19:29;;;;;;;16.20;10.82;;;7.20;89.10;;;;;;2072340;28;20057;-81
2021/03/11 01:20:29;;;;;;;16.77;11.10;;;7.20;89.10;;;;;;2056229;28;20038;-81
2021/03/11 01:21:30;;;;;;;17.58;11.30;;;7.20;89.10;;;;;;2056637;28;20030;-81
2021/03/11 01:22:30;;;;;;;17.23;11.20;;;7.20;89.10;;;;;;2072208;28;20451;-81
2021/03/11 01:23:31;;;;;;;16.98;11.10;;;7.20;89.10;;;;;;2063419;28;20054;-81
2021/03/11 01:24:32;;;;;;;17.13;11.68;;;7.20;89.00;;;;;;2072583;28;20402;-81
2021/03/11 01:25:32;;;;;;;16.70;11.32;;;7.20;89.00;;;;;;2070421;28;20025;-81
2021/03/11 01:26:33;;;;;;;16.48;10.73;;;7.20;89.10;;;;;;2072185;28;20480;-81
2021/03/11 01:27:34;;;;;;;16.58;11.52;;;7.20;89.10;;;;;;2063854;28;20038;-81
2021/03/11 01:28:34;;;;;;;18.90;11.43;;;7.20;89.10;;;;;;2064502;28;20034;-81
2021/03/11 01:29:35;;;;;;;17.05;11.10;;;7.20;89.10;;;;;;2064256;28;20038;-81
2021/03/11 01:30:36;;;;;;;15.40;10.93;;;7.30;89.10;;;;;;2056225;28;20102;-81
2021/03/11 01:31:36;;;;;;;16.67;11.20;;;7.30;89.10;;;;;;2056421;28;20023;-81
2021/03/11 01:32:37;;;;;;;16.25;11.30;;;7.20;89.10;;;;;;2068440;28;20018;-81
2021/03/11 01:33:38;;;;;;;14.93;10.20;;;7.20;89.20;;;;;;2080162;28;20045;-81
2021/03/11 01:34:38;;;;;;;15.95;11.05;;;7.20;89.20;;;;;;2071876;28;20038;-81
2021/03/11 01:35:39;;;;;;;14.88;10.48;;;7.20;89.10;;;;;;2063703;28;20030;-81
2021/03/11 01:36:39;;;;;;;18.48;11.50;;;7.20;89.20;;;;;;2063681;28;20481;-81
2021/03/11 01:37:40;;;;;;;16.60;11.38;;;7.30;89.40;;;;;;2064152;28;20026;-81
2021/03/11 01:38:41;;;;;;;15.70;10.80;;;7.30;89.40;;;;;;2072396;28;20033;-81
2021/03/11 01:39:41;;;;;;;17.08;11.05;;;7.20;89.40;;;;;;2080582;28;20345;-81
2021/03/11 01:40:42;;;;;;;18.60;11.88;;;7.20;89.40;;;;;;2072670;28;20640;-81
2021/03/11 01:41:43;;;;;;;18.08;11.32;;;7.20;89.50;;;;;;2055910;28;20038;-81
2021/03/11 01:42:44;;;;;;;18.02;12.38;;;7.20;89.60;;;;;;2062653;28;20042;-81
2021/03/11 01:43:44;;;;;;;18.05;11.90;;;7.20;89.60;;;;;;2081620;28;20068;-80
2021/03/11 01:44:45;;;;;;;19.23;12.10;;;7.20;89.70;;;;;;2081220;28;20112;-81
2021/03/11 01:45:45;;;;;;;18.88;12.50;;;7.20;89.80;;;;;;2072394;28;20037;-80
2021/03/11 01:46:46;;;;;;;15.20;10.88;;;7.20;89.80;;;;;;2063660;28;20117;-80
2021/03/11 01:47:47;;;;;;;16.73;11.18;;;7.20;89.90;;;;;;2071960;28;20029;-81
2021/03/11 01:48:47;;;;;;;17.75;11.43;;;7.20;89.90;;;;;;2066807;28;20062;-81
2021/03/11 01:49:48;;;;;;;17.55;12.15;;;7.20;89.90;;;;;;2064403;28;20552;-81
2021/03/11 01:50:48;;;;;;;16.75;11.82;;;7.20;90.00;;;;;;2065015;28;20135;-80
2021/03/11 01:51:50;;;;;;;17.27;11.90;;;7.20;90.00;;;;;;2063974;28;20117;-81
2021/03/11 01:52:51;;;;;;;18.38;12.15;;;7.20;90.00;;;;;;2065615;28;20033;-79
2021/03/11 01:53:52;;;;;;;18.13;11.90;;;7.20;90.00;;;;;;2064088;28;20493;-80
2021/03/11 01:54:52;;;;;;;17.45;12.15;;;7.20;90.10;;;;;;2065440;28;20109;-81
2021/03/11 01:55:53;;;;;;;16.30;11.55;;;7.20;90.00;;;;;;2074935;28;20108;-81
2021/03/11 01:56:54;;;;;;;17.25;11.38;;;7.20;90.10;;;;;;2074296;28;20495;-81
2021/03/11 01:57:55;;;;;;;16.98;11.52;;;7.30;90.10;;;;;;2075614;28;20078;-81
2021/03/11 01:58:57;;;;;;;16.80;11.25;;;7.20;90.10;;;;;;2082534;28;20505;-82
2021/03/11 01:59:58;;;;;;;17.85;11.30;;;7.30;90.10;;;;;;2082116;28;20045;-82
2021/03/11 02:00:58;;;;;;;17.05;11.30;;;7.30;90.10;;;;;;2079748;28;20109;-81
2021/03/11 02:02:00;;;;;;;16.17;10.85;;;7.30;90.10;;;;;;2065909;28;20119;-81
2021/03/11 02:03:03;;;;;;;16.38;11.77;;;7.30;90.10;;;;;;2067314;28;20064;-81
2021/03/11 02:04:04;;;;;;;16.73;10.95;;;7.30;90.10;;;;;;2073935;28;20383;-81
2021/03/11 02:05:06;;;;;;;15.68;10.77;;;7.30;90.00;;;;;;2074376;28;20042;-81
2021/03/11 02:06:07;;;;;;;15.02;10.77;;;7.30;90.00;;;;;;2065858;28;20026;-81
2021/03/11 02:07:08;;;;;;;15.40;11.07;;;7.30;90.00;;;;;;2068740;28;20048;-81
2021/03/11 02:08:08;;;;;;;14.85;10.55;;;7.30;90.30;;;;;;2057334;28;20050;-82
2021/03/11 02:09:09;;;;;;;15.45;10.77;;;7.30;90.00;;;;;;2048695;28;20099;-81
2021/03/11 02:10:12;;;;;;;14.48;10.32;;;7.40;90.00;;;;;;2073205;28;20591;-81
2021/03/11 02:11:18;;;;;;;16.50;11.13;;;7.40;90.10;;;;;;2081312;28;20475;-81
2021/03/11 02:12:43;;;;;;;16.92;10.77;;;7.40;90.10;;;;;;2080914;28;20018;-82
2021/03/11 02:13:53;;;;;;;16.60;10.90;;;7.40;90.10;;;;;;2082817;28;20159;-81
2021/03/11 02:15:05;;;;;;;17.48;11.52;;;7.40;90.10;;;;;;2073274;28;20014;-81
2021/03/11 02:16:17;;;;;;;15.10;10.38;;;7.40;90.10;;;;;;2067240;28;20030;-81
2021/03/11 02:17:21;;;;;;;14.23;9.93;;;7.40;90.00;;;;;;2066770;28;20030;-81
2021/03/11 02:18:30;;;;;;;16.65;10.60;;;7.40;90.00;;;;;;2073719;28;20037;-80
2021/03/11 02:19:46;;;;;;;12.50;9.52;;;7.40;90.00;;;;;;2068030;28;20022;-81
2021/03/11 02:20:55;;;;;;;13.65;9.63;;;7.40;90.00;;;;;;2073743;28;20026;-81
2021/03/11 02:22:21;;;;;;;13.55;9.20;;;7.40;90.00;;;;;;2078977;28;20026;-82
2021/03/11 02:23:34;;;;;;;14.55;9.48;;;7.40;90.00;;;;;;2072531;28;20422;-81
2021/03/11 02:25:02;;;;;;;14.50;9.80;;;7.40;90.00;;;;;;2077474;28;20052;-81
2021/03/11 02:26:20;;;;;;;13.40;9.52;;;7.40;90.00;;;;;;2090929;28;20031;-81
2021/03/11 02:27:35;;;;;;;14.23;9.30;;;7.40;90.00;;;;;;2081429;28;20032;-81
2021/03/11 02:28:53;;;;;;;14.73;10.43;;;7.40;90.00;;;;;;2081837;28;20124;-81
2021/03/11 02:29:54;;;;;;;15.23;10.63;;;7.40;90.10;;;;;;2080871;28;20028;-81
2021/03/11 02:30:57;;;;;;;14.68;9.95;;;7.40;90.00;;;;;;2065682;28;20029;-81
2021/03/11 02:32:00;;;;;;;14.88;10.07;;;7.40;90.00;;;;;;2064419;28;20026;-81
2021/03/11 02:33:03;;;;;;;14.95;10.25;;;7.40;90.10;;;;;;2065898;28;20018;-82
2021/03/11 02:34:35;;;;;;;14.40;9.73;;;7.40;90.10;;;;;;2069572;28;20046;-81
2021/03/11 02:35:39;;;;;;;11.95;8.77;;;7.40;90.10;;;;;;2061060;28;20042;-81
2021/03/11 02:36:40;;;;;;;12.90;8.90;;;7.40;90.10;;;;;;2069924;28;20018;-81
2021/03/11 02:37:44;;;;;;;13.02;9.18;;;7.40;90.10;;;;;;2081064;28;20491;-81
2021/03/11 02:38:46;;;;;;;14.27;9.05;;;7.40;90.10;;;;;;2081818;28;20033;-82
2021/03/11 02:39:55;;;;;;;13.20;9.50;;;7.40;90.20;;;;;;2075669;28;20029;-81
2021/03/11 02:40:59;;;;;;;13.60;8.93;;;7.50;90.20;;;;;;2067010;28;20051;-81
2021/03/11 02:42:00;;;;;;;12.45;9.13;;;7.40;90.20;;;;;;2085840;28;20041;-82
2021/03/11 02:43:04;;;;;;;12.35;8.95;;;7.40;90.20;;;;;;2082908;28;20419;-83
2021/03/11 02:44:06;;;;;;;13.65;9.20;;;7.50;90.30;;;;;;2082536;28;20041;-82
2021/03/11 02:45:10;;;;;;;11.25;8.18;;;7.50;90.30;;;;;;2086380;28;20018;-82
2021/03/11 02:46:11;;;;;;;11.52;8.10;;;7.50;90.30;;;;;;2073066;28;20026;-82
2021/03/11 02:47:12;;;;;;;11.75;8.48;;;7.50;90.30;;;;;;2057568;28;20121;-82
2021/03/11 02:48:14;;;;;;;12.75;8.70;;;7.50;90.30;;;;;;2057347;28;20121;-81
2021/03/11 02:49:17;;;;;;;14.30;10.25;;;7.50;90.40;;;;;;2072033;28;20122;-81
2021/03/11 02:50:19;;;;;;;13.95;9.13;;;7.50;90.40;;;;;;2065870;28;20022;-81
2021/03/11 02:51:20;;;;;;;13.63;8.85;;;7.50;90.40;;;;;;2068932;28;20033;-81
2021/03/11 02:52:21;;;;;;;12.98;9.18;;;7.50;90.40;;;;;;2056913;28;20089;-81
2021/03/11 02:53:22;;;;;;;12.75;8.32;;;7.50;90.40;;;;;;2065635;28;20113;-81
2021/03/11 02:54:25;;;;;;;11.07;7.70;;;7.50;90.50;;;;;;2071016;28;20562;-81
2021/03/11 02:55:29;;;;;;;11.52;8.43;;;7.50;90.40;;;;;;2065541;28;20146;-81
2021/03/11 02:56:30;;;;;;;12.20;9.00;;;7.50;90.50;;;;;;2068918;28;20093;-81
2021/03/11 02:57:31;;;;;;;13.35;9.32;;;7.50;90.50;;;;;;2090074;28;20422;-81
2021/03/11 02:58:33;;;;;;;12.85;8.90;;;7.50;90.50;;;;;;2085894;28;20041;-81
2021/03/11 02:59:36;;;;;;;10.98;7.82;;;7.60;90.50;;;;;;2082440;28;20075;-81
2021/03/11 03:00:38;;;;;;;11.68;8.00;;;7.50;90.70;;;;;;2084861;28;20494;-81
2021/03/11 03:01:40;;;;;;;11.82;7.90;;;7.60;90.50;;;;;;2088343;28;20106;-81
2021/03/11 03:02:43;;;;;;;12.88;8.23;;;7.60;90.50;;;;;;2069248;28;20045;-82
2021/03/11 03:03:44;;;;;;;12.45;8.70;;;7.60;90.50;;;;;;2077924;28;20554;-81
2021/03/11 03:04:48;;;;;;;11.27;8.25;;;7.60;90.60;;;;;;2073033;28;20038;-81
2021/03/11 03:05:51;;;;;;;11.35;8.27;;;7.60;90.60;;;;;;2073564;28;20018;-81
2021/03/11 03:06:52;;;;;;;11.75;8.15;;;7.60;90.60;;;;;;2074113;28;20029;-82
2021/03/11 03:07:54;;;;;;;11.10;7.72;;;7.60;90.60;;;;;;2075141;28;20463;-81
2021/03/11 03:08:56;;;;;;;11.25;8.07;;;7.60;90.50;;;;;;2077930;28;20060;-81
2021/03/11 03:09:57;;;;;;;11.23;7.85;;;7.60;90.50;;;;;;2066052;28;20065;-81
2021/03/11 03:10:58;;;;;;;10.57;7.90;;;7.60;90.50;;;;;;2073399;28;20022;-81
2021/03/11 03:12:00;;;;;;;11.13;7.35;;;7.60;90.50;;;;;;2073202;28;20037;-81
2021/03/11 03:13:11;;;;;;;10.15;7.72;;;7.60;90.50;;;;;;2073213;28;20029;-81
2021/03/11 03:14:13;;;;;;;11.10;7.28;;;7.60;90.50;;;;;;2080503;28;20030;-81
2021/03/11 03:15:15;;;;;;;10.23;7.15;;;7.70;90.50;;;;;;2081589;28;20365;-81
2021/03/11 03:16:16;;;;;;;11.52;7.93;;;7.70;90.50;;;;;;2082201;28;20116;-82
2021/03/11 03:17:19;;;;;;;11.00;7.82;;;7.70;90.50;;;;;;2072778;28;20041;-81
2021/03/11 03:18:21;;;;;;;11.43;7.95;;;7.70;90.50;;;;;;2072777;28;20022;-81
2021/03/11 03:19:22;;;;;;;11.05;8.20;;;7.70;90.80;;;;;;2073522;28;20029;-82
2021/03/11 03:20:24;;;;;;;11.25;7.70;;;7.70;90.50;;;;;;2065793;28;20401;-81
2021/03/11 03:21:25;;;;;;;9.93;7.57;;;7.70;90.50;;;;;;2079337;28;20037;-81
2021/03/11 03:22:27;;;;;;;11.48;7.90;;;7.70;90.50;;;;;;2080541;28;20045;-81
2021/03/11 03:23:28;;;;;;;10.63;7.45;;;7.70;90.50;;;;;;2078466;28;20500;-81
2021/03/11 03:24:29;;;;;;;10.85;8.02;;;7.70;90.50;;;;;;2077909;28;20059;-82
2021/03/11 03:25:30;;;;;;;9.50;7.60;;;7.80;90.50;;;;;;2081776;28;20498;-80
2021/03/11 03:26:32;;;;;;;11.00;7.50;;;7.70;90.50;;;;;;2082254;28;20036;-82
2021/03/11 03:27:33;;;;;;;9.70;7.45;;;7.80;90.60;;;;;;2082194;28;20033;-81
2021/03/11 03:28:35;;;;;;;11.57;7.80;;;7.80;90.60;;;;;;2072626;28;20036;-81
2021/03/11 03:29:36;;;;;;;10.48;7.30;;;7.80;90.50;;;;;;2067606;28;20029;-81
2021/03/11 03:30:37;;;;;;;9.77;7.43;;;7.80;90.50;;;;;;2072210;28;20642;-82
2021/03/11 03:31:37;;;;;;;9.98;7.20;;;7.80;90.50;;;;;;2057042;28;20057;-81
2021/03/11 03:32:38;;;;;;;10.90;8.00;;;7.80;90.50;;;;;;2052783;28;20062;-82
2021/03/11 03:33:39;;;;;;;10.52;7.50;;;7.80;90.50;;;;;;2072884;28;20034;-82
2021/03/11 03:34:40;;;;;;;10.82;7.45;;;7.80;90.60;;;;;;2090369;28;20029;-81
2021/03/11 03:35:41;;;;;;;11.60;7.95;;;7.80;90.60;;;;;;2073395;28;20192;-81
2021/03/11 03:36:42;;;;;;;10.75;7.60;;;7.80;90.60;;;;;;2056956;28;20401;-82
2021/03/11 03:37:42;;;;;;;10.27;7.25;;;7.80;90.70;;;;;;2064691;28;20087;-81
2021/03/11 03:38:43;;;;;;;10.07;7.45;;;7.80;90.80;;;;;;2064515;28;20037;-82
2021/03/11 03:39:43;;;;;;;11.98;8.48;;;7.70;90.70;;;;;;2071383;28;20211;-81
2021/03/11 03:40:45;;;;;;;10.70;8.02;;;7.70;90.80;;;;;;2068171;28;20146;-81
2021/03/11 03:41:49;;;;;;;10.05;7.30;;;7.70;90.80;;;;;;2065323;28;20069;-81
2021/03/11 03:43:01;;;;;;;9.82;7.43;;;7.70;90.80;;;;;;2084315;28;20037;-81
2021/03/11 03:44:03;;;;;;;10.65;8.07;;;7.70;90.90;;;;;;2088343;28;20036;-82
2021/03/11 03:45:06;;;;;;;9.63;6.85;;;7.70;90.90;;;;;;2090285;28;20384;-82
2021/03/11 03:46:09;;;;;;;10.43;7.78;;;7.70;90.90;;;;;;2069341;28;20023;-82
2021/03/11 03:47:12;;;;;;;11.27;7.68;;;7.70;90.90;;;;;;2057713;28;20437;-81
2021/03/11 03:48:17;;;;;;;10.38;7.22;;;7.70;91.00;;;;;;2073002;28;20030;-81
2021/03/11 03:49:19;;;;;;;10.70;7.65;;;7.70;91.00;;;;;;2065287;28;20038;-81
2021/03/11 03:50:20;;;;;;;11.32;7.90;;;7.70;91.10;;;;;;2074209;28;20022;-81
2021/03/11 03:51:24;;;;;;;11.05;7.82;;;7.70;91.10;;;;;;2073273;28;20065;-81
2021/03/11 03:52:27;;;;;;;11.40;8.27;;;7.70;91.20;;;;;;2080721;28;20471;-81
2021/03/11 03:53:34;;;;;;;11.20;8.02;;;7.70;91.20;;;;;;2072814;28;20464;-81
2021/03/11 03:54:43;;;;;;;10.38;8.00;;;7.70;91.30;;;;;;2073790;28;20037;-81
2021/03/11 03:55:46;;;;;;;10.85;8.20;;;7.70;91.20;;;;;;2080290;28;20032;-81
2021/03/11 03:57:06;;;;;;;11.60;8.05;;;7.70;91.30;;;;;;2072444;28;20018;-82
2021/03/11 03:58:07;;;;;;;10.50;6.82;;;7.70;91.20;;;;;;2070302;28;20034;-82
2021/03/11 03:59:20;;;;;;;10.38;7.47;;;7.70;91.20;;;;;;2081444;28;20040;-81
2021/03/11 04:00:22;;;;;;;10.68;7.60;;;7.70;91.20;;;;;;2075866;28;20014;-81
2021/03/11 04:01:27;;;;;;;10.32;7.65;;;7.70;91.20;;;;;;2073135;28;20029;-81
2021/03/11 04:02:28;;;;;;;10.32;7.03;;;7.70;91.20;;;;;;2072766;28;20034;-81
2021/03/11 04:03:29;;;;;;;10.10;6.72;;;7.70;91.20;;;;;;2072919;28;20096;-81
2021/03/11 04:04:34;;;;;;;9.23;6.55;;;7.70;91.30;;;;;;2073269;28;20196;-81
2021/03/11 04:05:35;;;;;;;9.95;7.20;;;7.70;91.30;;;;;;2080260;28;20491;-80
2021/03/11 04:06:38;;;;;;;11.07;8.07;;;7.70;91.40;;;;;;2078570;28;20026;-81
2021/03/11 04:07:40;;;;;;;10.98;7.43;;;7.70;91.40;;;;;;2075380;28;20069;-81
2021/03/11 04:08:42;;;;;;;9.82;7.25;;;7.70;91.50;;;;;;2073147;28;20476;-81
2021/03/11 04:09:43;;;;;;;11.85;8.13;;;7.70;91.50;;;;;;2072341;28;20038;-81
2021/03/11 04:10:45;;;;;;;11.70;7.80;;;7.80;91.50;;;;;;2073029;28;20030;-81
2021/03/11 04:11:46;;;;;;;11.18;7.82;;;7.80;91.50;;;;;;2064792;28;20037;-81
2021/03/11 04:12:47;;;;;;;10.45;7.80;;;7.80;91.50;;;;;;2071993;28;20517;-81
2021/03/11 04:13:50;;;;;;;11.00;7.85;;;7.80;91.50;;;;;;2081872;28;20033;-81
2021/03/11 04:14:52;;;;;;;10.68;7.93;;;7.80;91.50;;;;;;2072066;28;20065;-81
2021/03/11 04:15:53;;;;;;;10.38;7.22;;;7.80;91.50;;;;;;2073264;28;20030;-81
2021/03/11 04:16:54;;;;;;;10.35;7.60;;;7.80;91.60;;;;;;2081157;28;20511;-81
2021/03/11 04:17:57;;;;;;;10.48;7.47;;;7.80;91.50;;;;;;2080698;28;20590;-81
2021/03/11 04:19:00;;;;;;;11.25;7.80;;;7.80;91.50;;;;;;2086662;28;20130;-81
2021/03/11 04:20:05;;;;;;;10.25;7.50;;;7.80;91.60;;;;;;2089131;28;20017;-81
2021/03/11 04:21:07;;;;;;;10.30;7.35;;;7.80;91.50;;;;;;2073445;28;20113;-81
2021/03/11 04:22:08;;;;;;;11.43;7.85;;;7.80;91.50;;;;;;2064941;28;20507;-81
2021/03/11 04:23:09;;;;;;;11.82;7.65;;;7.80;91.50;;;;;;2071774;28;20107;-81
2021/03/11 04:24:10;;;;;;;10.15;7.35;;;7.80;91.70;;;;;;2079832;28;20053;-81
2021/03/11 04:25:11;;;;;;;9.65;7.35;;;7.80;91.60;;;;;;2073068;28;20087;-81
2021/03/11 04:26:13;;;;;;;11.13;7.85;;;7.80;91.60;;;;;;2072186;28;20092;-82
2021/03/11 04:27:13;;;;;;;10.43;7.00;;;7.80;91.60;;;;;;2072852;28;20042;-81
2021/03/11 04:28:14;;;;;;;10.32;7.68;;;7.90;91.60;;;;;;2080904;28;20467;-81
2021/03/11 04:29:16;;;;;;;12.25;8.23;;;7.90;91.60;;;;;;2076999;28;20040;-81
2021/03/11 04:30:18;;;;;;;11.73;8.90;;;7.90;91.70;;;;;;2081093;28;20053;-82
2021/03/11 04:31:19;;;;;;;10.68;7.90;;;7.90;91.60;;;;;;2070205;28;20073;-81
2021/03/11 04:32:21;;;;;;;12.45;8.60;;;7.90;91.60;;;;;;2072735;28;20549;-82
2021/03/11 04:33:22;;;;;;;11.93;8.23;;;7.90;91.60;;;;;;2083925;28;20092;-82
2021/03/11 04:34:23;;;;;;;11.82;8.43;;;7.90;91.70;;;;;;2083520;28;20080;-81
2021/03/11 04:35:24;;;;;;;10.82;7.80;;;8.00;91.70;;;;;;2084485;28;20057;-81
2021/03/11 04:36:26;;;;;;;12.50;8.32;;;7.90;91.70;;;;;;2075092;28;20036;-81
2021/03/11 04:37:27;;;;;;;11.73;8.15;;;7.90;91.60;;;;;;2058315;28;20046;-82
2021/03/11 04:38:27;;;;;;;11.77;8.15;;;8.00;91.70;;;;;;2066695;28;20401;-81
2021/03/11 04:39:29;;;;;;;12.35;7.85;;;8.00;91.70;;;;;;2081842;28;20068;-81
2021/03/11 04:40:30;;;;;;;10.57;7.68;;;8.00;91.70;;;;;;2082389;28;20107;-81
2021/03/11 04:41:31;;;;;;;10.80;7.88;;;8.00;91.70;;;;;;2085032;28;20033;-81
2021/03/11 04:42:34;;;;;;;10.77;8.05;;;8.00;91.70;;;;;;2087801;28;20036;-81
2021/03/11 04:43:36;;;;;;;11.15;8.07;;;8.00;91.70;;;;;;2082913;28;20479;-81
2021/03/11 04:44:37;;;;;;;12.35;8.15;;;8.00;91.70;;;;;;2083708;28;20108;-81
2021/03/11 04:45:42;;;;;;;11.38;8.02;;;8.00;91.70;;;;;;2076378;28;20117;-81
2021/03/11 04:46:43;;;;;;;11.80;8.38;;;8.00;91.70;;;;;;2070627;28;20437;-82
2021/03/11 04:47:45;;;;;;;12.20;8.40;;;8.00;91.70;;;;;;2087994;28;20028;-81
2021/03/11 04:48:47;;;;;;;9.57;7.38;;;8.00;91.70;;;;;;2078738;28;20083;-81
2021/03/11 04:49:48;;;;;;;11.02;7.80;;;8.10;91.70;;;;;;2080662;28;20083;-81
2021/03/11 04:50:49;;;;;;;12.30;8.20;;;8.10;91.70;;;;;;2086784;28;20029;-81
2021/03/11 04:51:51;;;;;;;12.00;8.80;;;8.10;91.70;;;;;;2089426;28;20512;-81
2021/03/11 04:52:52;;;;;;;11.63;8.43;;;8.10;91.70;;;;;;2074654;28;20029;-81
2021/03/11 04:53:54;;;;;;;10.98;7.82;;;8.10;91.70;;;;;;2066529;28;20034;-81
2021/03/11 04:54:55;;;;;;;11.85;8.38;;;8.10;91.70;;;;;;2079252;28;20067;-81
2021/03/11 04:55:56;;;;;;;12.20;8.50;;;8.10;91.70;;;;;;2072509;28;20089;-81
2021/03/11 04:56:57;;;;;;;11.73;8.40;;;8.10;91.70;;;;;;2064046;28;20054;-81
2021/03/11 04:57:57;;;;;;;11.27;8.63;;;8.20;91.70;;;;;;2064308;28;20035;-81
2021/03/11 04:58:58;;;;;;;12.15;8.32;;;8.20;91.70;;;;;;2081882;28;20076;-81
2021/03/11 05:00:01;;;;;;;13.80;9.00;;;8.20;91.70;;;;;;2072991;28;20037;-81
2021/03/11 05:01:09;;;;;;;12.25;8.88;;;8.20;91.80;;;;;;2066310;28;20448;-80
2021/03/11 05:02:10;;;;;;;13.45;9.60;;;8.20;91.70;;;;;;2054722;28;20474;-81
2021/03/11 05:03:11;;;;;;;14.18;9.35;;;8.20;91.80;;;;;;2064760;28;20034;-81
2021/03/11 05:04:13;;;;;;;12.75;9.02;;;8.20;91.70;;;;;;2073392;28;20609;-81
2021/03/11 05:05:29;;;;;;;13.18;9.35;;;8.30;91.70;;;;;;2077378;28;20026;-81
2021/03/11 05:06:30;;;;;;;13.52;8.75;;;8.30;91.70;;;;;;2075154;28;20392;-80
2021/03/11 05:07:31;;;;;;;15.63;9.63;;;8.30;91.80;;;;;;2074966;28;20033;-81
2021/03/11 05:08:31;;;;;;;12.30;8.95;;;8.30;91.70;;;;;;2081277;28;20025;-81
2021/03/11 05:09:32;;;;;;;13.98;9.88;;;8.30;91.70;;;;;;2090529;28;20443;-81
2021/03/11 05:10:33;;;;;;;13.52;9.73;;;8.30;91.80;;;;;;2072375;28;20388;-81
2021/03/11 05:11:34;;;;;;;13.70;10.05;;;8.30;91.80;;;;;;2071943;28;20041;-81
2021/03/11 05:12:34;;;;;;;13.07;9.32;;;8.30;91.80;;;;;;2080979;28;20025;-81
2021/03/11 05:13:35;;;;;;;13.15;9.50;;;8.30;91.70;;;;;;2077011;28;20033;-81
2021/03/11 05:14:36;;;;;;;13.45;9.63;;;8.40;91.70;;;;;;2075077;28;20099;-81
2021/03/11 05:15:36;;;;;;;13.30;9.80;;;8.40;91.70;;;;;;2071909;28;20894;-81
2021/03/11 05:16:37;;;;;;;14.32;9.38;;;8.40;91.70;;;;;;2072565;28;20033;-81
2021/03/11 05:17:38;;;;;;;12.30;9.20;;;8.40;91.70;;;;;;2064088;28;20512;-81
2021/03/11 05:18:39;;;;;;;12.95;9.13;;;8.40;91.70;;;;;;2064580;28;20049;-81
2021/03/11 05:19:39;;;;;;;13.20;9.25;;;8.40;91.70;;;;;;2073053;28;20026;-81
2021/03/11 05:20:40;;;;;;;12.88;9.43;;;8.50;91.70;;;;;;2076911;28;20033;-81
2021/03/11 05:21:40;;;;;;;13.25;9.73;;;8.40;91.70;;;;;;2072137;28;20025;-81
2021/03/11 05:22:43;;;;;;;14.27;10.15;;;8.40;91.70;;;;;;2086663;28;20099;-81